Pine Hills, Florida
Current Conditions -  °F | °C
As of 1:53 PM on Friday 31 Oct 2014 (Local Time) from KORL Reporting Station
Clear Clear  
Wind Chill: 78°   Ceiling: Unl
Heat Index: 79°   Visibility: 10mi
Dew Point: 52°   Wind: 15mph
Humidity: 40%   Direction: 280°W
Pressure: 29.82"   Gusts: 22mph
Location:  28.55°N, 81.45°W
Report Text: KORL 311753Z 28013G19KT 10SM CLR 26/11 A2982 RMK AO2 SLP100 T02560111 10261 20200 58021
Loading
Personal Weather Stations






























Interactive Weather Map
Tropical Storm Tracking
New forecast layout! Learn more

10-Day Weather Forecast

Advertisements
Track Severe Weather on mobile